sensor_id;sensor_type;location;lat;lon;timestamp;temperature;humidity
38500;DHT22;24269;51.894;4.622;2022-09-02T00:00:48;15.90;99.90
38500;DHT22;24269;51.894;4.622;2022-09-02T00:03:15;15.90;99.90
38500;DHT22;24269;51.894;4.622;2022-09-02T00:05:41;15.90;99.90
38500;DHT22;24269;51.894;4.622;2022-09-02T00:08:07;15.90;99.90
38500;DHT22;24269;51.894;4.622;2022-09-02T00:10:36;15.80;99.90
38500;DHT22;24269;51.894;4.622;2022-09-02T00:13:03;15.80;99.90
38500;DHT22;24269;51.894;4.622;2022-09-02T00:15:29;15.70;99.90
38500;DHT22;24269;51.894;4.622;2022-09-02T00:17:55;15.70;99.90
38500;DHT22;24269;51.894;4.622;2022-09-02T00:20:21;15.70;99.90
38500;DHT22;24269;51.894;4.622;2022-09-02T00:22:47;15.70;99.90
38500;DHT22;24269;51.894;4.622;2022-09-02T00:25:12;15.60;99.90
38500;DHT22;24269;51.894;4.622;2022-09-02T00:27:38;15.60;99.90
38500;DHT22;24269;51.894;4.622;2022-09-02T00:30:05;15.50;99.90
38500;DHT22;24269;51.894;4.622;2022-09-02T00:32:30;15.50;99.90
38500;DHT22;24269;51.894;4.622;2022-09-02T00:34:56;15.40;99.90
38500;DHT22;24269;51.894;4.622;2022-09-02T00:37:23;15.40;99.90
38500;DHT22;24269;51.894;4.622;2022-09-02T00:39:50;15.30;99.90
38500;DHT22;24269;51.894;4.622;2022-09-02T00:42:17;15.30;99.90
38500;DHT22;24269;51.894;4.622;2022-09-02T00:44:43;15.30;99.90
38500;DHT22;24269;51.894;4.622;2022-09-02T00:47:09;15.30;99.90
38500;DHT22;24269;51.894;4.622;2022-09-02T00:49:38;15.20;99.90
38500;DHT22;24269;51.894;4.622;2022-09-02T00:52:10;15.20;99.90
38500;DHT22;24269;51.894;4.622;2022-09-02T00:54:44;15.20;99.90
38500;DHT22;24269;51.894;4.622;2022-09-02T00:57:13;15.20;99.90
38500;DHT22;24269;51.894;4.622;2022-09-02T01:00:09;15.20;99.90
38500;DHT22;24269;51.894;4.622;2022-09-02T01:02:38;15.10;99.90
38500;DHT22;24269;51.894;4.622;2022-09-02T01:05:06;15.20;99.90
38500;DHT22;24269;51.894;4.622;2022-09-02T01:07:34;15.20;99.90
38500;DHT22;24269;51.894;4.622;2022-09-02T01:10:08;15.10;99.90
38500;DHT22;24269;51.894;4.622;2022-09-02T01:12:35;15.20;99.90
38500;DHT22;24269;51.894;4.622;2022-09-02T01:15:03;15.10;99.90
38500;DHT22;24269;51.894;4.622;2022-09-02T01:17:29;15.10;99.90
38500;DHT22;24269;51.894;4.622;2022-09-02T01:20:03;15.10;99.90
38500;DHT22;24269;51.894;4.622;2022-09-02T01:22:30;15.10;99.90
38500;DHT22;24269;51.894;4.622;2022-09-02T01:25:01;15.20;99.90
38500;DHT22;24269;51.894;4.622;2022-09-02T01:27:28;15.10;99.90
38500;DHT22;24269;51.894;4.622;2022-09-02T01:29:56;15.20;99.90
38500;DHT22;24269;51.894;4.622;2022-09-02T01:32:23;15.20;99.90
38500;DHT22;24269;51.894;4.622;2022-09-02T01:34:50;15.30;99.90
38500;DHT22;24269;51.894;4.622;2022-09-02T01:37:16;15.30;99.90
38500;DHT22;24269;51.894;4.622;2022-09-02T01:39:42;15.30;99.90
38500;DHT22;24269;51.894;4.622;2022-09-02T01:42:08;15.30;99.90
38500;DHT22;24269;51.894;4.622;2022-09-02T01:44:37;15.30;99.90
38500;DHT22;24269;51.894;4.622;2022-09-02T01:47:12;15.30;99.90
38500;DHT22;24269;51.894;4.622;2022-09-02T01:49:38;15.30;99.90
38500;DHT22;24269;51.894;4.622;2022-09-02T01:52:04;15.30;99.90
38500;DHT22;24269;51.894;4.622;2022-09-02T01:54:31;15.40;99.90
38500;DHT22;24269;51.894;4.622;2022-09-02T01:56:56;15.40;99.90
38500;DHT22;24269;51.894;4.622;2022-09-02T01:59:22;15.40;99.90
38500;DHT22;24269;51.894;4.622;2022-09-02T02:01:48;15.40;99.90
38500;DHT22;24269;51.894;4.622;2022-09-02T02:04:14;15.40;99.90
38500;DHT22;24269;51.894;4.622;2022-09-02T02:06:41;15.40;99.90
38500;DHT22;24269;51.894;4.622;2022-09-02T02:09:08;15.40;99.90
38500;DHT22;24269;51.894;4.622;2022-09-02T02:11:34;15.40;99.90
38500;DHT22;24269;51.894;4.622;2022-09-02T02:13:59;15.40;99.90
38500;DHT22;24269;51.894;4.622;2022-09-02T02:16:25;15.40;99.90
38500;DHT22;24269;51.894;4.622;2022-09-02T02:18:50;15.40;99.90
38500;DHT22;24269;51.894;4.622;2022-09-02T02:21:16;15.30;99.90
38500;DHT22;24269;51.894;4.622;2022-09-02T02:23:42;15.30;99.90
38500;DHT22;24269;51.894;4.622;2022-09-02T02:26:07;15.30;99.90
38500;DHT22;24269;51.894;4.622;2022-09-02T02:28:33;15.20;99.90
38500;DHT22;24269;51.894;4.622;2022-09-02T02:30:59;15.20;99.90
38500;DHT22;24269;51.894;4.622;2022-09-02T02:33:26;15.10;99.90
38500;DHT22;24269;51.894;4.622;2022-09-02T02:35:54;15.10;99.90
38500;DHT22;24269;51.894;4.622;2022-09-02T02:38:20;15.10;99.90
38500;DHT22;24269;51.894;4.622;2022-09-02T02:40:46;15.00;99.90
38500;DHT22;24269;51.894;4.622;2022-09-02T02:43:12;15.10;99.90
38500;DHT22;24269;51.894;4.622;2022-09-02T02:45:37;15.00;99.90
38500;DHT22;24269;51.894;4.622;2022-09-02T02:48:04;15.00;99.90
38500;DHT22;24269;51.894;4.622;2022-09-02T02:50:30;15.00;99.90
38500;DHT22;24269;51.894;4.622;2022-09-02T02:52:56;15.00;99.90
38500;DHT22;24269;51.894;4.622;2022-09-02T02:55:22;15.00;99.90
38500;DHT22;24269;51.894;4.622;2022-09-02T02:57:49;15.00;99.90
38500;DHT22;24269;51.894;4.622;2022-09-02T03:00:25;15.00;99.90
38500;DHT22;24269;51.894;4.622;2022-09-02T03:03:00;15.00;99.90
38500;DHT22;24269;51.894;4.622;2022-09-02T03:05:26;15.00;99.90
38500;DHT22;24269;51.894;4.622;2022-09-02T03:07:52;15.00;99.90
38500;DHT22;24269;51.894;4.622;2022-09-02T03:10:18;15.00;99.90
38500;DHT22;24269;51.894;4.622;2022-09-02T03:12:44;15.00;99.90
38500;DHT22;24269;51.894;4.622;2022-09-02T03:15:13;15.00;99.90
38500;DHT22;24269;51.894;4.622;2022-09-02T03:17:42;15.00;99.90
38500;DHT22;24269;51.894;4.622;2022-09-02T03:20:08;15.00;99.90
38500;DHT22;24269;51.894;4.622;2022-09-02T03:22:34;15.00;99.90
38500;DHT22;24269;51.894;4.622;2022-09-02T03:25:02;15.00;99.90
38500;DHT22;24269;51.894;4.622;2022-09-02T03:27:28;15.00;99.90
38500;DHT22;24269;51.894;4.622;2022-09-02T03:29:53;15.00;99.90
38500;DHT22;24269;51.894;4.622;2022-09-02T03:32:19;15.00;99.90
38500;DHT22;24269;51.894;4.622;2022-09-02T03:34:44;15.00;99.90
38500;DHT22;24269;51.894;4.622;2022-09-02T03:37:10;14.90;99.90
38500;DHT22;24269;51.894;4.622;2022-09-02T03:39:37;14.90;99.90
38500;DHT22;24269;51.894;4.622;2022-09-02T03:42:04;14.90;99.90
38500;DHT22;24269;51.894;4.622;2022-09-02T03:44:29;14.90;99.90
38500;DHT22;24269;51.894;4.622;2022-09-02T03:46:55;14.90;99.90
38500;DHT22;24269;51.894;4.622;2022-09-02T03:49:21;14.90;99.90
38500;DHT22;24269;51.894;4.622;2022-09-02T03:51:46;14.90;99.90
38500;DHT22;24269;51.894;4.622;2022-09-02T03:54:12;14.90;99.90
38500;DHT22;24269;51.894;4.622;2022-09-02T03:56:37;14.90;99.90
38500;DHT22;24269;51.894;4.622;2022-09-02T03:59:03;14.90;99.90
38500;DHT22;24269;51.894;4.622;2022-09-02T04:01:29;14.90;99.90
38500;DHT22;24269;51.894;4.622;2022-09-02T04:03:55;14.90;99.90
38500;DHT22;24269;51.894;4.622;2022-09-02T04:06:22;14.90;99.90
38500;DHT22;24269;51.894;4.622;2022-09-02T04:08:49;14.90;99.90
38500;DHT22;24269;51.894;4.622;2022-09-02T04:11:18;14.90;99.90
38500;DHT22;24269;51.894;4.622;2022-09-02T04:13:46;14.90;99.90
38500;DHT22;24269;51.894;4.622;2022-09-02T04:16:14;14.90;99.90
38500;DHT22;24269;51.894;4.622;2022-09-02T04:18:41;14.90;99.90
38500;DHT22;24269;51.894;4.622;2022-09-02T04:21:07;14.90;99.90
38500;DHT22;24269;51.894;4.622;2022-09-02T04:23:34;14.90;99.90
38500;DHT22;24269;51.894;4.622;2022-09-02T04:26:09;14.90;99.90
38500;DHT22;24269;51.894;4.622;2022-09-02T04:28:35;14.80;99.90
38500;DHT22;24269;51.894;4.622;2022-09-02T04:31:05;14.80;99.90
38500;DHT22;24269;51.894;4.622;2022-09-02T04:33:31;14.80;99.90
38500;DHT22;24269;51.894;4.622;2022-09-02T04:35:57;14.80;99.90
38500;DHT22;24269;51.894;4.622;2022-09-02T04:38:23;14.80;99.90
38500;DHT22;24269;51.894;4.622;2022-09-02T04:40:48;14.80;99.90
38500;DHT22;24269;51.894;4.622;2022-09-02T04:43:14;14.80;99.90
38500;DHT22;24269;51.894;4.622;2022-09-02T04:45:42;14.80;99.90
38500;DHT22;24269;51.894;4.622;2022-09-02T04:48:08;14.80;99.90
38500;DHT22;24269;51.894;4.622;2022-09-02T04:50:35;14.80;99.90
38500;DHT22;24269;51.894;4.622;2022-09-02T04:53:01;14.80;99.90
38500;DHT22;24269;51.894;4.622;2022-09-02T04:55:27;14.80;99.90
38500;DHT22;24269;51.894;4.622;2022-09-02T04:57:52;14.80;99.90
38500;DHT22;24269;51.894;4.622;2022-09-02T05:00:18;14.70;99.90
38500;DHT22;24269;51.894;4.622;2022-09-02T05:02:44;14.70;99.90
38500;DHT22;24269;51.894;4.622;2022-09-02T05:05:10;14.60;99.90
38500;DHT22;24269;51.894;4.622;2022-09-02T05:07:36;14.60;99.90
38500;DHT22;24269;51.894;4.622;2022-09-02T05:10:04;14.60;99.90
38500;DHT22;24269;51.894;4.622;2022-09-02T05:12:34;14.60;99.90
38500;DHT22;24269;51.894;4.622;2022-09-02T05:15:00;14.60;99.90
38500;DHT22;24269;51.894;4.622;2022-09-02T05:17:27;14.60;99.90
38500;DHT22;24269;51.894;4.622;2022-09-02T05:19:53;14.60;99.90
38500;DHT22;24269;51.894;4.622;2022-09-02T05:22:19;14.60;99.90
38500;DHT22;24269;51.894;4.622;2022-09-02T05:24:45;14.60;99.90
38500;DHT22;24269;51.894;4.622;2022-09-02T05:27:12;14.60;99.90
38500;DHT22;24269;51.894;4.622;2022-09-02T05:29:40;14.60;99.90
38500;DHT22;24269;51.894;4.622;2022-09-02T05:32:06;14.70;99.90
38500;DHT22;24269;51.894;4.622;2022-09-02T05:34:33;14.60;99.90
38500;DHT22;24269;51.894;4.622;2022-09-02T05:37:00;14.60;99.90
38500;DHT22;24269;51.894;4.622;2022-09-02T05:39:26;14.60;99.90
38500;DHT22;24269;51.894;4.622;2022-09-02T05:41:51;14.70;99.90
38500;DHT22;24269;51.894;4.622;2022-09-02T05:44:17;14.80;99.90
38500;DHT22;24269;51.894;4.622;2022-09-02T05:46:43;14.80;99.90
38500;DHT22;24269;51.894;4.622;2022-09-02T05:49:08;14.80;99.90
38500;DHT22;24269;51.894;4.622;2022-09-02T05:51:47;14.70;99.90
38500;DHT22;24269;51.894;4.622;2022-09-02T05:54:19;14.70;99.90
38500;DHT22;24269;51.894;4.622;2022-09-02T05:56:48;14.70;99.90
38500;DHT22;24269;51.894;4.622;2022-09-02T05:59:15;14.70;99.90
38500;DHT22;24269;51.894;4.622;2022-09-02T06:01:42;14.60;99.90
38500;DHT22;24269;51.894;4.622;2022-09-02T06:04:08;14.60;99.90
38500;DHT22;24269;51.894;4.622;2022-09-02T06:06:34;14.60;99.90
38500;DHT22;24269;51.894;4.622;2022-09-02T06:09:04;14.60;99.90
38500;DHT22;24269;51.894;4.622;2022-09-02T06:11:32;14.60;99.90
38500;DHT22;24269;51.894;4.622;2022-09-02T06:13:58;14.70;99.90
38500;DHT22;24269;51.894;4.622;2022-09-02T06:16:23;14.70;99.90
38500;DHT22;24269;51.894;4.622;2022-09-02T06:18:51;14.70;99.90
38500;DHT22;24269;51.894;4.622;2022-09-02T06:21:17;14.70;99.90
38500;DHT22;24269;51.894;4.622;2022-09-02T06:23:45;14.70;99.90
38500;DHT22;24269;51.894;4.622;2022-09-02T06:26:12;14.80;99.90
38500;DHT22;24269;51.894;4.622;2022-09-02T06:28:38;14.80;99.90
38500;DHT22;24269;51.894;4.622;2022-09-02T06:31:10;14.90;99.90
38500;DHT22;24269;51.894;4.622;2022-09-02T06:33:37;15.00;99.90
38500;DHT22;24269;51.894;4.622;2022-09-02T06:36:08;15.00;99.90
38500;DHT22;24269;51.894;4.622;2022-09-02T06:38:38;15.00;99.90
38500;DHT22;24269;51.894;4.622;2022-09-02T06:41:05;15.10;99.90
38500;DHT22;24269;51.894;4.622;2022-09-02T06:43:31;15.20;99.90
38500;DHT22;24269;51.894;4.622;2022-09-02T06:45:57;15.20;99.90
38500;DHT22;24269;51.894;4.622;2022-09-02T06:48:22;15.30;99.90
38500;DHT22;24269;51.894;4.622;2022-09-02T06:50:48;15.40;99.90
38500;DHT22;24269;51.894;4.622;2022-09-02T06:53:14;15.50;99.90
38500;DHT22;24269;51.894;4.622;2022-09-02T06:55:43;15.50;99.90
38500;DHT22;24269;51.894;4.622;2022-09-02T06:58:09;15.60;99.90
38500;DHT22;24269;51.894;4.622;2022-09-02T07:00:36;15.70;99.90
38500;DHT22;24269;51.894;4.622;2022-09-02T07:03:03;15.80;99.90
38500;DHT22;24269;51.894;4.622;2022-09-02T07:06:00;15.90;99.90
38500;DHT22;24269;51.894;4.622;2022-09-02T07:08:27;16.00;99.90
38500;DHT22;24269;51.894;4.622;2022-09-02T07:10:52;16.10;99.90
38500;DHT22;24269;51.894;4.622;2022-09-02T07:13:18;16.20;99.90
38500;DHT22;24269;51.894;4.622;2022-09-02T07:15:44;16.30;99.90
38500;DHT22;24269;51.894;4.622;2022-09-02T07:18:09;16.40;99.90
38500;DHT22;24269;51.894;4.622;2022-09-02T07:20:35;16.50;99.90
38500;DHT22;24269;51.894;4.622;2022-09-02T07:23:01;16.50;99.90
38500;DHT22;24269;51.894;4.622;2022-09-02T07:25:26;16.60;99.90
38500;DHT22;24269;51.894;4.622;2022-09-02T07:27:52;16.70;99.90
38500;DHT22;24269;51.894;4.622;2022-09-02T07:30:19;16.80;99.90
38500;DHT22;24269;51.894;4.622;2022-09-02T07:32:45;16.80;99.90
38500;DHT22;24269;51.894;4.622;2022-09-02T07:35:10;17.00;99.90
38500;DHT22;24269;51.894;4.622;2022-09-02T07:37:36;17.10;99.90
38500;DHT22;24269;51.894;4.622;2022-09-02T07:40:05;17.30;99.90
38500;DHT22;24269;51.894;4.622;2022-09-02T07:42:32;17.40;99.90
38500;DHT22;24269;51.894;4.622;2022-09-02T07:44:57;17.50;99.90
38500;DHT22;24269;51.894;4.622;2022-09-02T07:47:23;17.70;99.90
38500;DHT22;24269;51.894;4.622;2022-09-02T07:49:49;17.80;99.90
38500;DHT22;24269;51.894;4.622;2022-09-02T07:52:14;18.00;99.90
38500;DHT22;24269;51.894;4.622;2022-09-02T07:54:41;18.20;99.90
38500;DHT22;24269;51.894;4.622;2022-09-02T07:57:07;18.40;99.90
38500;DHT22;24269;51.894;4.622;2022-09-02T07:59:33;18.50;99.90
38500;DHT22;24269;51.894;4.622;2022-09-02T08:01:59;18.60;99.90
38500;DHT22;24269;51.894;4.622;2022-09-02T08:04:24;18.80;99.90
38500;DHT22;24269;51.894;4.622;2022-09-02T08:06:52;18.80;99.90
38500;DHT22;24269;51.894;4.622;2022-09-02T08:09:18;19.00;99.90
38500;DHT22;24269;51.894;4.622;2022-09-02T08:11:45;19.20;99.90
38500;DHT22;24269;51.894;4.622;2022-09-02T08:14:14;19.40;99.90
38500;DHT22;24269;51.894;4.622;2022-09-02T08:16:43;19.60;99.90
38500;DHT22;24269;51.894;4.622;2022-09-02T08:19:09;19.70;99.90
38500;DHT22;24269;51.894;4.622;2022-09-02T08:21:35;19.90;99.90
38500;DHT22;24269;51.894;4.622;2022-09-02T08:24:01;20.00;99.90
38500;DHT22;24269;51.894;4.622;2022-09-02T08:26:27;20.20;99.90
38500;DHT22;24269;51.894;4.622;2022-09-02T08:28:53;20.30;99.90
38500;DHT22;24269;51.894;4.622;2022-09-02T08:31:20;20.30;99.90
38500;DHT22;24269;51.894;4.622;2022-09-02T08:33:46;20.40;99.90
38500;DHT22;24269;51.894;4.622;2022-09-02T08:36:11;20.50;99.90
38500;DHT22;24269;51.894;4.622;2022-09-02T08:38:40;20.50;99.90
38500;DHT22;24269;51.894;4.622;2022-09-02T08:41:16;20.70;99.90
38500;DHT22;24269;51.894;4.622;2022-09-02T08:43:45;20.70;99.90
38500;DHT22;24269;51.894;4.622;2022-09-02T08:46:12;20.80;99.90
38500;DHT22;24269;51.894;4.622;2022-09-02T08:49:01;20.80;99.90
38500;DHT22;24269;51.894;4.622;2022-09-02T08:51:48;20.80;99.90
38500;DHT22;24269;51.894;4.622;2022-09-02T08:54:30;20.60;99.90
38500;DHT22;24269;51.894;4.622;2022-09-02T08:56:58;20.60;99.90
38500;DHT22;24269;51.894;4.622;2022-09-02T08:59:26;20.70;99.90
38500;DHT22;24269;51.894;4.622;2022-09-02T09:07:29;20.90;99.90
38500;DHT22;24269;51.894;4.622;2022-09-02T09:18:06;21.50;99.90
38500;DHT22;24269;51.894;4.622;2022-09-02T09:20:40;21.50;99.90
38500;DHT22;24269;51.894;4.622;2022-09-02T09:25:58;21.80;99.90
38500;DHT22;24269;51.894;4.622;2022-09-02T09:28:29;22.00;99.90
38500;DHT22;24269;51.894;4.622;2022-09-02T09:30:58;22.10;99.90
38500;DHT22;24269;51.894;4.622;2022-09-02T09:33:24;22.20;99.90
38500;DHT22;24269;51.894;4.622;2022-09-02T09:35:53;22.20;99.90
38500;DHT22;24269;51.894;4.622;2022-09-02T09:38:30;22.30;99.90
38500;DHT22;24269;51.894;4.622;2022-09-02T09:41:15;22.30;99.90
38500;DHT22;24269;51.894;4.622;2022-09-02T09:43:42;22.40;99.90
38500;DHT22;24269;51.894;4.622;2022-09-02T09:46:28;22.50;99.90
38500;DHT22;24269;51.894;4.622;2022-09-02T09:48:54;22.70;99.90
38500;DHT22;24269;51.894;4.622;2022-09-02T09:51:20;22.80;99.90
38500;DHT22;24269;51.894;4.622;2022-09-02T09:53:46;22.90;99.90
38500;DHT22;24269;51.894;4.622;2022-09-02T10:03:40;23.00;99.90
38500;DHT22;24269;51.894;4.622;2022-09-02T10:06:23;23.10;99.90
38500;DHT22;24269;51.894;4.622;2022-09-02T10:08:55;23.10;99.90
38500;DHT22;24269;51.894;4.622;2022-09-02T10:11:25;23.20;99.90
38500;DHT22;24269;51.894;4.622;2022-09-02T10:13:59;23.30;99.90
38500;DHT22;24269;51.894;4.622;2022-09-02T10:19:36;23.50;99.90
38500;DHT22;24269;51.894;4.622;2022-09-02T10:30:22;24.00;99.90
38500;DHT22;24269;51.894;4.622;2022-09-02T10:35:42;24.20;99.90
38500;DHT22;24269;51.894;4.622;2022-09-02T10:38:23;24.30;99.90
38500;DHT22;24269;51.894;4.622;2022-09-02T10:41:06;24.40;99.90
38500;DHT22;24269;51.894;4.622;2022-09-02T10:44:14;24.60;99.90
38500;DHT22;24269;51.894;4.622;2022-09-02T10:47:00;24.70;99.90
38500;DHT22;24269;51.894;4.622;2022-09-02T10:49:43;24.80;99.90
38500;DHT22;24269;51.894;4.622;2022-09-02T10:55:15;25.00;99.90
38500;DHT22;24269;51.894;4.622;2022-09-02T10:57:58;25.20;99.90
38500;DHT22;24269;51.894;4.622;2022-09-02T11:00:25;25.20;99.90
38500;DHT22;24269;51.894;4.622;2022-09-02T11:08:26;25.30;99.90
38500;DHT22;24269;51.894;4.622;2022-09-02T11:11:22;25.40;99.90
38500;DHT22;24269;51.894;4.622;2022-09-02T11:16:37;25.50;99.90
38500;DHT22;24269;51.894;4.622;2022-09-02T11:19:19;25.60;99.90
38500;DHT22;24269;51.894;4.622;2022-09-02T11:22:02;25.70;99.90
38500;DHT22;24269;51.894;4.622;2022-09-02T11:24:50;25.90;99.90
38500;DHT22;24269;51.894;4.622;2022-09-02T11:27:34;26.00;99.90
38500;DHT22;24269;51.894;4.622;2022-09-02T11:30:16;26.20;99.90
38500;DHT22;24269;51.894;4.622;2022-09-02T11:33:17;26.30;99.90
38500;DHT22;24269;51.894;4.622;2022-09-02T11:35:44;26.40;99.90
38500;DHT22;24269;51.894;4.622;2022-09-02T11:43:29;26.60;99.90
38500;DHT22;24269;51.894;4.622;2022-09-02T11:46:05;26.70;99.90
38500;DHT22;24269;51.894;4.622;2022-09-02T11:49:01;26.80;99.90
38500;DHT22;24269;51.894;4.622;2022-09-02T11:52:00;26.80;99.90
38500;DHT22;24269;51.894;4.622;2022-09-02T11:54:34;26.80;99.90
38500;DHT22;24269;51.894;4.622;2022-09-02T11:57:03;26.90;99.90
38500;DHT22;24269;51.894;4.622;2022-09-02T12:02:48;27.00;99.60
38500;DHT22;24269;51.894;4.622;2022-09-02T12:08:14;27.20;99.90
38500;DHT22;24269;51.894;4.622;2022-09-02T12:11:02;27.40;99.80
38500;DHT22;24269;51.894;4.622;2022-09-02T12:13:44;27.40;98.30
38500;DHT22;24269;51.894;4.622;2022-09-02T12:21:25;27.40;95.60
38500;DHT22;24269;51.894;4.622;2022-09-02T12:29:12;27.30;96.90
38500;DHT22;24269;51.894;4.622;2022-09-02T12:31:54;27.60;95.80
38500;DHT22;24269;51.894;4.622;2022-09-02T12:36:57;27.90;94.60
38500;DHT22;24269;51.894;4.622;2022-09-02T12:57:43;28.80;93.60
38500;DHT22;24269;51.894;4.622;2022-09-02T13:00:24;28.90;91.30
38500;DHT22;24269;51.894;4.622;2022-09-02T13:13:20;29.00;91.90
38500;DHT22;24269;51.894;4.622;2022-09-02T13:27:24;29.50;90.80
38500;DHT22;24269;51.894;4.622;2022-09-02T13:32:28;29.80;90.20
38500;DHT22;24269;51.894;4.622;2022-09-02T13:34:57;29.70;90.20
38500;DHT22;24269;51.894;4.622;2022-09-02T13:37:52;29.60;88.00
38500;DHT22;24269;51.894;4.622;2022-09-02T13:40:23;29.60;90.20
38500;DHT22;24269;51.894;4.622;2022-09-02T13:42:57;29.60;90.40
38500;DHT22;24269;51.894;4.622;2022-09-02T13:45:25;29.90;88.60
38500;DHT22;24269;51.894;4.622;2022-09-02T13:47:53;30.00;87.80
38500;DHT22;24269;51.894;4.622;2022-09-02T13:50:25;29.90;84.90
38500;DHT22;24269;51.894;4.622;2022-09-02T13:53:02;29.90;90.70
38500;DHT22;24269;51.894;4.622;2022-09-02T13:55:29;29.90;84.30
38500;DHT22;24269;51.894;4.622;2022-09-02T13:58:04;30.00;87.10
38500;DHT22;24269;51.894;4.622;2022-09-02T14:00:36;30.20;86.80
38500;DHT22;24269;51.894;4.622;2022-09-02T14:03:06;30.00;85.60
38500;DHT22;24269;51.894;4.622;2022-09-02T14:05:33;30.10;81.60
38500;DHT22;24269;51.894;4.622;2022-09-02T14:08:02;30.10;83.40
38500;DHT22;24269;51.894;4.622;2022-09-02T14:10:30;30.00;86.80
38500;DHT22;24269;51.894;4.622;2022-09-02T14:13:00;29.80;84.30
38500;DHT22;24269;51.894;4.622;2022-09-02T14:15:28;29.90;85.00
38500;DHT22;24269;51.894;4.622;2022-09-02T14:20:32;30.80;84.20
38500;DHT22;24269;51.894;4.622;2022-09-02T14:22:58;30.90;80.40
38500;DHT22;24269;51.894;4.622;2022-09-02T14:25:26;31.10;80.10
38500;DHT22;24269;51.894;4.622;2022-09-02T14:27:55;31.40;79.80
38500;DHT22;24269;51.894;4.622;2022-09-02T14:30:37;31.60;78.90
38500;DHT22;24269;51.894;4.622;2022-09-02T14:36:11;32.20;80.10
38500;DHT22;24269;51.894;4.622;2022-09-02T14:38:56;32.50;76.50
38500;DHT22;24269;51.894;4.622;2022-09-02T14:43:55;32.40;74.80
38500;DHT22;24269;51.894;4.622;2022-09-02T14:46:51;32.30;75.90
38500;DHT22;24269;51.894;4.622;2022-09-02T14:49:27;32.30;74.40
38500;DHT22;24269;51.894;4.622;2022-09-02T14:51:59;32.30;75.00
38500;DHT22;24269;51.894;4.622;2022-09-02T14:54:41;32.40;74.30
38500;DHT22;24269;51.894;4.622;2022-09-02T14:57:46;32.70;74.50
38500;DHT22;24269;51.894;4.622;2022-09-02T15:00:12;32.40;71.30
38500;DHT22;24269;51.894;4.622;2022-09-02T15:02:44;32.00;73.30
38500;DHT22;24269;51.894;4.622;2022-09-02T15:05:12;31.90;73.80
38500;DHT22;24269;51.894;4.622;2022-09-02T15:07:41;31.90;71.40
38500;DHT22;24269;51.894;4.622;2022-09-02T15:10:07;31.80;72.40
38500;DHT22;24269;51.894;4.622;2022-09-02T15:12:38;31.60;72.60
38500;DHT22;24269;51.894;4.622;2022-09-02T15:15:05;31.50;73.80
38500;DHT22;24269;51.894;4.622;2022-09-02T15:17:30;31.40;73.70
38500;DHT22;24269;51.894;4.622;2022-09-02T15:19:56;31.20;69.80
38500;DHT22;24269;51.894;4.622;2022-09-02T15:22:22;31.10;72.60
38500;DHT22;24269;51.894;4.622;2022-09-02T15:24:48;30.70;73.40
38500;DHT22;24269;51.894;4.622;2022-09-02T15:27:15;30.00;72.20
38500;DHT22;24269;51.894;4.622;2022-09-02T15:29:41;29.90;74.00
38500;DHT22;24269;51.894;4.622;2022-09-02T15:32:07;29.70;74.80
38500;DHT22;24269;51.894;4.622;2022-09-02T15:34:33;29.90;74.50
38500;DHT22;24269;51.894;4.622;2022-09-02T15:36:59;29.70;74.10
38500;DHT22;24269;51.894;4.622;2022-09-02T15:39:25;29.40;74.40
38500;DHT22;24269;51.894;4.622;2022-09-02T15:41:52;28.80;74.90
38500;DHT22;24269;51.894;4.622;2022-09-02T15:44:20;28.30;75.60
38500;DHT22;24269;51.894;4.622;2022-09-02T15:46:45;27.80;77.00
38500;DHT22;24269;51.894;4.622;2022-09-02T15:49:13;27.40;78.70
38500;DHT22;24269;51.894;4.622;2022-09-02T15:51:41;27.10;79.00
38500;DHT22;24269;51.894;4.622;2022-09-02T15:54:09;26.80;79.90
38500;DHT22;24269;51.894;4.622;2022-09-02T15:56:37;26.70;79.50
38500;DHT22;24269;51.894;4.622;2022-09-02T15:59:06;26.50;76.80
38500;DHT22;24269;51.894;4.622;2022-09-02T16:01:34;26.40;78.20
38500;DHT22;24269;51.894;4.622;2022-09-02T16:04:01;26.20;79.10
38500;DHT22;24269;51.894;4.622;2022-09-02T16:06:27;26.20;79.50
38500;DHT22;24269;51.894;4.622;2022-09-02T16:08:53;26.10;79.70
38500;DHT22;24269;51.894;4.622;2022-09-02T16:11:19;26.10;80.80
38500;DHT22;24269;51.894;4.622;2022-09-02T16:13:45;26.00;81.10
38500;DHT22;24269;51.894;4.622;2022-09-02T16:16:12;25.90;81.30
38500;DHT22;24269;51.894;4.622;2022-09-02T16:18:40;25.80;80.90
38500;DHT22;24269;51.894;4.622;2022-09-02T16:21:07;25.70;80.50
38500;DHT22;24269;51.894;4.622;2022-09-02T16:23:34;25.60;79.30
38500;DHT22;24269;51.894;4.622;2022-09-02T16:28:42;25.40;80.20
38500;DHT22;24269;51.894;4.622;2022-09-02T16:31:11;25.30;81.00
38500;DHT22;24269;51.894;4.622;2022-09-02T16:33:37;25.20;80.50
38500;DHT22;24269;51.894;4.622;2022-09-02T16:36:04;25.10;79.80
38500;DHT22;24269;51.894;4.622;2022-09-02T16:38:30;25.10;81.20
38500;DHT22;24269;51.894;4.622;2022-09-02T16:40:56;24.90;80.60
38500;DHT22;24269;51.894;4.622;2022-09-02T16:43:23;24.90;81.00
38500;DHT22;24269;51.894;4.622;2022-09-02T16:45:50;24.80;81.70
38500;DHT22;24269;51.894;4.622;2022-09-02T16:48:17;24.80;82.90
38500;DHT22;24269;51.894;4.622;2022-09-02T16:50:44;24.70;81.80
38500;DHT22;24269;51.894;4.622;2022-09-02T16:53:10;24.60;82.40
38500;DHT22;24269;51.894;4.622;2022-09-02T16:55:43;24.60;82.20
38500;DHT22;24269;51.894;4.622;2022-09-02T16:58:10;24.60;82.40
38500;DHT22;24269;51.894;4.622;2022-09-02T17:00:44;24.60;83.40
38500;DHT22;24269;51.894;4.622;2022-09-02T17:03:10;24.50;82.70
38500;DHT22;24269;51.894;4.622;2022-09-02T17:05:37;24.50;82.60
38500;DHT22;24269;51.894;4.622;2022-09-02T17:08:03;24.50;83.30
38500;DHT22;24269;51.894;4.622;2022-09-02T17:10:29;24.50;84.60
38500;DHT22;24269;51.894;4.622;2022-09-02T17:12:56;24.50;85.00
38500;DHT22;24269;51.894;4.622;2022-09-02T17:15:22;24.40;85.00
38500;DHT22;24269;51.894;4.622;2022-09-02T17:17:48;24.40;84.80
38500;DHT22;24269;51.894;4.622;2022-09-02T17:20:14;24.40;86.10
38500;DHT22;24269;51.894;4.622;2022-09-02T17:22:40;24.30;88.00
38500;DHT22;24269;51.894;4.622;2022-09-02T17:25:07;24.30;87.60
38500;DHT22;24269;51.894;4.622;2022-09-02T17:27:32;24.20;88.10
38500;DHT22;24269;51.894;4.622;2022-09-02T17:30:00;24.20;88.20
38500;DHT22;24269;51.894;4.622;2022-09-02T17:32:26;24.10;88.90
38500;DHT22;24269;51.894;4.622;2022-09-02T17:34:53;24.00;88.60
38500;DHT22;24269;51.894;4.622;2022-09-02T17:37:19;24.00;89.10
38500;DHT22;24269;51.894;4.622;2022-09-02T17:39:47;23.90;89.70
38500;DHT22;24269;51.894;4.622;2022-09-02T17:42:12;23.90;89.70
38500;DHT22;24269;51.894;4.622;2022-09-02T17:44:38;23.80;90.40
38500;DHT22;24269;51.894;4.622;2022-09-02T17:47:05;23.70;90.40
38500;DHT22;24269;51.894;4.622;2022-09-02T17:49:32;23.70;90.60